This is the latest recevied weather packets stored in our database for station/object W1TG-2. If no packets are shown the sender has not sent any weather packets the latest 1 day(s).
| Time | Temp. | Humidity | Pressure | Rain* | Wind** | Luminosity | Snow |
|---|---|---|---|---|---|---|---|
| 1778096884 | 16.67° C | 88% | 1005.4 hPa | 0.76 mm | - | - | - |
| 1778095444 | 17.22° C | 85% | 1005.7 hPa | 0.25 mm | - | - | - |
| 1778094364 | 17.22° C | 80% | 1005.6 hPa | 0 mm | - | - | - |
| 1778092924 | 17.78° C | 78% | 1005.3 hPa | 0 mm | - | - | - |
| 1778088964 | 19.44° C | 71% | 1005.8 hPa | 0 mm | - | - | - |
| 1778085724 | 18.89° C | 72% | 1006.2 hPa | 0 mm | - | - | - |
| 1778085364 | 18.89° C | 72% | 1006.2 hPa | 0 mm | - | - | - |
| 1778081764 | 21.11° C | 69% | 1007.4 hPa | 0 mm | - | - | - |
| 1778080324 | 21.11° C | 68% | 1007.8 hPa | 0 mm | - | - | - |
| 1778079244 | 21.11° C | 69% | 1007.6 hPa | 0 mm | - | - | - |
| 1778078884 | 21.11° C | 69% | 1007.7 hPa | 0 mm | - | - | - |
| 1778076364 | 20° C | 73% | 1007.7 hPa | 0 mm | - | - | - |
| 1778076004 | 19.44° C | 73% | 1007.7 hPa | 0 mm | - | - | - |
| 1778073484 | 18.89° C | 75% | 1008 hPa | 0 mm | - | - | - |
| 1778072044 | 18.89° C | 76% | 1007.9 hPa | 0 mm | - | - | - |
| 1778070964 | 18.33° C | 76% | 1008.4 hPa | 0 mm | - | - | - |
| 1778069524 | 17.78° C | 79% | 1008.3 hPa | 0 mm | - | - | - |
| 1778068444 | 17.78° C | 79% | 1008.5 hPa | 0 mm | - | - | - |
| 1778068084 | 17.78° C | 79% | 1008.5 hPa | 0 mm | - | - | - |
| 1778067004 | 17.22° C | 79% | 1008.5 hPa | 0 mm | - | - | - |
| 1778065924 | 17.22° C | 80% | 1008.6 hPa | 0 mm | - | - | - |
| 1778065564 | 16.67° C | 80% | 1008.7 hPa | 0 mm | - | - | - |
| 1778064484 | 16.67° C | 80% | 1008.6 hPa | 0 mm | - | - | - |
| 1778064124 | 16.67° C | 79% | 1008.7 hPa | 0 mm | - | - | - |
| 1778063044 | 16.67° C | 79% | 1008.7 hPa | 0 mm | - | - | - |
* Rain latest hour (hover to see other rain measurements)
** Current wind speed in m/s (hover to see current wind gust speed)